Time,TemperatureF,DewpointF,PressureIn,WindDirection,WindDirectionDegrees,WindSpeedMPH,WindSpeedGustMPH,Humidity,HourlyPrecipIn,Conditions,Clouds,dailyrainin,SoftwareType,DateUTC
2013-02-23 00:00:00,47.8,42.6,30.02,SW,234,3.0,3.0,82,0.00,,,0.00,VWS V14.01,2013-02-23 05:00:00,
2013-02-23 00:05:00,47.8,42.6,30.02,West,268,4.0,4.0,82,0.00,,,0.00,VWS V14.01,2013-02-23 05:05:00,
2013-02-23 00:10:00,47.7,42.5,30.02,West,266,2.0,3.0,82,0.00,,,0.00,VWS V14.01,2013-02-23 05:10:00,
2013-02-23 00:15:00,47.7,42.5,30.01,West,266,0.0,0.0,82,0.00,,,0.00,VWS V14.01,2013-02-23 05:15:00,
2013-02-23 00:20:00,47.7,42.5,30.01,West,266,0.0,2.0,82,0.00,,,0.00,VWS V14.01,2013-02-23 05:20:00,
2013-02-23 00:25:00,47.6,42.4,30.00,West,266,0.0,0.0,82,0.00,,,0.00,VWS V14.01,2013-02-23 05:25:00,
2013-02-23 00:30:00,47.6,42.4,30.00,West,266,1.0,2.0,82,0.00,,,0.00,VWS V14.01,2013-02-23 05:30:00,
2013-02-23 00:35:00,47.5,42.6,30.00,West,266,0.0,0.0,83,0.00,,,0.00,VWS V14.01,2013-02-23 05:35:00,
2013-02-23 00:40:00,47.5,42.3,30.01,West,266,2.0,3.0,82,0.00,,,0.00,VWS V14.01,2013-02-23 05:40:00,
2013-02-23 00:45:00,47.4,42.5,30.01,West,276,4.0,4.0,83,0.00,,,0.00,VWS V14.01,2013-02-23 05:45:00,
2013-02-23 00:50:00,47.4,42.5,30.02,WNW,286,4.0,4.0,83,0.00,,,0.00,VWS V14.01,2013-02-23 05:50:00,
2013-02-23 00:55:00,47.3,42.4,30.02,WNW,285,5.0,7.0,83,0.00,,,0.00,VWS V14.01,2013-02-23 05:55:00,
2013-02-23 01:00:00,47.2,42.3,30.03,West,269,5.0,7.0,83,0.00,,,0.00,VWS V14.01,2013-02-23 06:00:00,
2013-02-23 01:05:00,47.1,42.5,30.03,West,261,4.0,7.0,84,0.00,,,0.00,VWS V14.01,2013-02-23 06:05:00,
2013-02-23 01:10:00,47.1,42.2,30.02,West,279,2.0,4.0,83,0.00,,,0.00,VWS V14.01,2013-02-23 06:10:00,
2013-02-23 01:15:00,47.0,42.4,30.02,NW,305,0.0,3.0,84,0.00,,,0.00,VWS V14.01,2013-02-23 06:15:00,
2013-02-23 01:20:00,47.0,42.4,30.01,WNW,302,1.0,4.0,84,0.00,,,0.00,VWS V14.01,2013-02-23 06:20:00,
2013-02-23 01:25:00,46.9,42.3,30.01,North,9,2.0,2.0,84,0.00,,,0.00,VWS V14.01,2013-02-23 06:25:00,
2013-02-23 01:30:00,46.8,42.5,30.01,WNW,302,1.0,3.0,85,0.00,,,0.00,VWS V14.01,2013-02-23 06:30:00,
2013-02-23 01:35:00,46.8,42.5,30.01,WNW,302,2.0,2.0,85,0.00,,,0.00,VWS V14.01,2013-02-23 06:35:00,
2013-02-23 01:40:00,46.7,42.4,30.01,West,276,3.0,5.0,85,0.00,,,0.00,VWS V14.01,2013-02-23 06:40:00,
2013-02-23 01:45:00,46.7,42.4,30.02,WNW,294,4.0,5.0,85,0.00,,,0.00,VWS V14.01,2013-02-23 06:45:00,
2013-02-23 01:50:00,46.6,42.3,30.01,West,267,3.0,4.0,85,0.00,,,0.00,VWS V14.01,2013-02-23 06:50:00,
2013-02-23 01:55:00,46.5,42.2,30.02,WNW,298,3.0,5.0,85,0.00,,,0.00,VWS V14.01,2013-02-23 06:55:00,
2013-02-23 02:00:00,46.4,42.5,30.02,WNW,286,2.0,3.0,86,0.00,,,0.00,VWS V14.01,2013-02-23 07:00:00,
2013-02-23 02:05:00,46.4,42.5,30.01,WNW,286,1.0,2.0,86,0.00,,,0.00,VWS V14.01,2013-02-23 07:05:00,
2013-02-23 02:10:00,46.3,42.3,30.01,WNW,286,0.0,0.0,86,0.00,,,0.00,VWS V14.01,2013-02-23 07:10:00,
2013-02-23 02:15:00,46.3,42.3,30.01,WNW,286,0.0,0.0,86,0.00,,,0.00,VWS V14.01,2013-02-23 07:15:00,
2013-02-23 02:20:00,46.3,42.3,30.02,WNW,286,2.0,3.0,86,0.00,,,0.00,VWS V14.01,2013-02-23 07:20:00,
2013-02-23 02:25:00,46.3,42.3,30.03,West,279,3.0,4.0,86,0.00,,,0.00,VWS V14.01,2013-02-23 07:25:00,
2013-02-23 02:30:00,46.3,42.3,30.03,West,279,2.0,2.0,86,0.00,,,0.00,VWS V14.01,2013-02-23 07:30:00,
2013-02-23 02:35:00,46.2,42.2,30.03,West,276,1.0,2.0,86,0.00,,,0.00,VWS V14.01,2013-02-23 07:35:00,
2013-02-23 02:40:00,46.2,42.2,30.03,West,276,0.0,2.0,86,0.00,,,0.00,VWS V14.01,2013-02-23 07:40:00,
2013-02-23 02:45:00,46.2,42.2,30.03,West,276,0.0,0.0,86,0.00,,,0.00,VWS V14.01,2013-02-23 07:45:00,
2013-02-23 02:50:00,46.2,42.5,30.01,WSW,254,1.0,2.0,87,0.00,,,0.00,VWS V14.01,2013-02-23 07:50:00,
2013-02-23 02:55:00,46.1,42.5,30.01,WSW,254,0.0,0.0,87,0.00,,,0.00,VWS V14.01,2013-02-23 07:55:00,
2013-02-23 03:00:00,46.1,42.2,30.01,WSW,254,0.0,0.0,86,0.00,,,0.00,VWS V14.01,2013-02-23 08:00:00,
2013-02-23 03:05:00,46.1,42.5,30.01,WSW,254,0.0,0.0,87,0.00,,,0.00,VWS V14.01,2013-02-23 08:05:00,
2013-02-23 03:10:00,46.0,42.3,30.01,WSW,254,0.0,0.0,87,0.00,,,0.00,VWS V14.01,2013-02-23 08:10:00,
2013-02-23 03:15:00,46.0,42.3,30.01,WSW,254,0.0,0.0,87,0.00,,,0.00,VWS V14.01,2013-02-23 08:15:00,
2013-02-23 03:20:00,46.0,42.3,30.01,WSW,254,0.0,0.0,87,0.00,,,0.00,VWS V14.01,2013-02-23 08:20:00,
2013-02-23 03:25:00,46.0,42.3,30.00,WSW,254,0.0,0.0,87,0.00,,,0.00,VWS V14.01,2013-02-23 08:25:00,
2013-02-23 03:30:00,45.9,42.3,29.99,WSW,256,1.0,2.0,87,0.00,,,0.00,VWS V14.01,2013-02-23 08:30:00,
2013-02-23 03:35:00,45.9,42.3,29.99,NE,54,0.0,0.0,87,0.00,,,0.00,VWS V14.01,2013-02-23 08:35:00,
2013-02-23 03:40:00,45.9,42.5,29.99,ENE,57,0.0,0.0,88,0.00,,,0.00,VWS V14.01,2013-02-23 08:40:00,
2013-02-23 03:45:00,45.8,42.2,29.99,NW,315,1.0,2.0,87,0.00,,,0.00,VWS V14.01,2013-02-23 08:45:00,
2013-02-23 03:50:00,45.8,42.5,29.98,NW,314,0.0,0.0,88,0.00,,,0.00,VWS V14.01,2013-02-23 08:50:00,
2013-02-23 03:55:00,45.7,42.4,29.97,ENE,63,1.0,1.0,88,0.00,,,0.00,VWS V14.01,2013-02-23 08:55:00,
2013-02-23 04:00:00,45.6,42.3,29.96,NE,39,1.0,2.0,88,0.00,,,0.00,VWS V14.01,2013-02-23 09:00:00,
2013-02-23 04:05:00,45.6,42.3,29.97,NNW,348,2.0,3.0,88,0.00,,,0.00,VWS V14.01,2013-02-23 09:05:00,
2013-02-23 04:10:00,45.5,42.2,29.96,North,350,3.0,3.0,88,0.00,,,0.00,VWS V14.01,2013-02-23 09:10:00,
2013-02-23 04:15:00,45.5,42.2,29.97,NE,34,0.0,1.0,88,0.00,,,0.00,VWS V14.01,2013-02-23 09:15:00,
2013-02-23 04:20:00,45.4,42.1,29.96,NE,34,0.0,0.0,88,0.00,,,0.00,VWS V14.01,2013-02-23 09:20:00,
2013-02-23 04:25:00,45.3,42.0,29.96,ENE,69,0.0,1.0,88,0.00,,,0.00,VWS V14.01,2013-02-23 09:25:00,
2013-02-23 04:30:00,45.4,42.1,29.95,ENE,77,1.0,1.0,88,0.00,,,0.00,VWS V14.01,2013-02-23 09:30:00,
2013-02-23 04:35:00,45.4,42.1,29.95,ENE,77,0.0,0.0,88,0.00,,,0.00,VWS V14.01,2013-02-23 09:35:00,
2013-02-23 04:40:00,45.3,42.0,29.95,ENE,77,0.0,0.0,88,0.00,,,0.00,VWS V14.01,2013-02-23 09:40:00,
2013-02-23 04:45:00,45.3,42.3,29.96,ENE,77,0.0,1.0,89,0.00,,,0.00,VWS V14.01,2013-02-23 09:45:00,
2013-02-23 04:50:00,45.3,42.0,29.97,ENE,72,0.0,0.0,88,0.00,,,0.00,VWS V14.01,2013-02-23 09:50:00,
2013-02-23 04:55:00,45.3,42.0,29.96,ENE,72,0.0,0.0,88,0.00,,,0.00,VWS V14.01,2013-02-23 09:55:00,
2013-02-23 05:00:00,45.3,42.3,29.95,ENE,72,1.0,1.0,89,0.00,,,0.00,VWS V14.01,2013-02-23 10:00:00,
2013-02-23 05:05:00,45.3,42.3,29.96,ENE,72,0.0,0.0,89,0.00,,,0.00,VWS V14.01,2013-02-23 10:05:00,
2013-02-23 05:10:00,45.3,42.3,29.96,ENE,72,0.0,0.0,89,0.00,,,0.00,VWS V14.01,2013-02-23 10:10:00,
2013-02-23 05:15:00,45.3,42.3,29.95,ENE,72,0.0,0.0,89,0.00,,,0.00,VWS V14.01,2013-02-23 10:15:00,
2013-02-23 05:20:00,45.3,42.3,29.96,ENE,72,0.0,0.0,89,0.00,,,0.00,VWS V14.01,2013-02-23 10:20:00,
2013-02-23 05:25:00,45.3,42.3,29.97,ENE,72,0.0,0.0,89,0.00,,,0.00,VWS V14.01,2013-02-23 10:25:00,
2013-02-23 05:30:00,45.3,42.3,29.96,ENE,72,0.0,0.0,89,0.00,,,0.00,VWS V14.01,2013-02-23 10:30:00,
2013-02-23 05:35:00,45.3,42.3,29.96,ENE,72,0.0,0.0,89,0.00,,,0.00,VWS V14.01,2013-02-23 10:35:00,
2013-02-23 05:40:00,45.3,42.3,29.96,ENE,72,0.0,0.0,89,0.00,,,0.00,VWS V14.01,2013-02-23 10:40:00,
2013-02-23 05:45:00,45.3,42.3,29.96,ENE,72,0.0,0.0,89,0.00,,,0.00,VWS V14.01,2013-02-23 10:45:00,
2013-02-23 05:50:00,45.3,42.3,29.97,ENE,72,0.0,0.0,89,0.00,,,0.00,VWS V14.01,2013-02-23 10:50:00,
2013-02-23 05:55:00,45.3,42.3,29.96,ENE,72,0.0,0.0,89,0.00,,,0.00,VWS V14.01,2013-02-23 10:55:00,
2013-02-23 06:00:00,45.3,42.3,29.96,ENE,77,0.0,0.0,89,0.00,,,0.00,VWS V14.01,2013-02-23 11:00:00,
2013-02-23 06:05:00,45.3,42.3,29.97,ENE,77,0.0,0.0,89,0.00,,,0.00,VWS V14.01,2013-02-23 11:05:00,
2013-02-23 06:10:00,45.3,42.3,29.97,ENE,77,0.0,0.0,89,0.00,,,0.00,VWS V14.01,2013-02-23 11:10:00,
2013-02-23 06:15:00,45.3,42.3,29.97,ENE,77,0.0,0.0,89,0.00,,,0.00,VWS V14.01,2013-02-23 11:15:00,
2013-02-23 06:20:00,45.4,42.3,29.97,ENE,77,0.0,0.0,89,0.00,,,0.00,VWS V14.01,2013-02-23 11:20:00,
2013-02-23 06:25:00,45.4,42.3,29.97,ENE,77,0.0,0.0,89,0.00,,,0.00,VWS V14.01,2013-02-23 11:25:00,
2013-02-23 06:30:00,45.3,42.3,29.96,ENE,77,0.0,0.0,89,0.00,,,0.00,VWS V14.01,2013-02-23 11:30:00,
2013-02-23 06:35:00,45.4,42.3,29.96,ENE,77,0.0,0.0,89,0.00,,,0.00,VWS V14.01,2013-02-23 11:35:00,
2013-02-23 06:40:00,45.4,42.3,29.95,ENE,77,0.0,0.0,89,0.00,,,0.00,VWS V14.01,2013-02-23 11:40:00,
2013-02-23 06:45:00,45.3,42.3,29.95,ENE,77,0.0,0.0,89,0.00,,,0.00,VWS V14.01,2013-02-23 11:45:00,
2013-02-23 06:50:00,45.3,42.3,29.95,East,80,2.0,2.0,89,0.00,,,0.00,VWS V14.01,2013-02-23 11:50:00,
2013-02-23 06:55:00,45.3,42.3,29.95,East,80,0.0,0.0,89,0.00,,,0.00,VWS V14.01,2013-02-23 11:55:00,
2013-02-23 07:00:00,45.3,42.3,29.96,East,80,0.0,0.0,89,0.00,,,0.00,VWS V14.01,2013-02-23 12:00:00,
2013-02-23 07:05:00,45.3,42.3,29.96,East,80,0.0,0.0,89,0.00,,,0.00,VWS V14.01,2013-02-23 12:05:00,
2013-02-23 07:10:00,45.3,42.3,29.96,East,80,0.0,0.0,89,0.00,,,0.00,VWS V14.01,2013-02-23 12:10:00,
2013-02-23 07:15:00,45.3,42.3,29.96,East,80,0.0,0.0,89,0.00,,,0.00,VWS V14.01,2013-02-23 12:15:00,
2013-02-23 07:20:00,45.4,42.6,29.95,East,80,0.0,0.0,90,0.00,,,0.00,VWS V14.01,2013-02-23 12:20:00,
2013-02-23 07:25:00,45.4,42.3,29.96,East,82,0.0,0.0,89,0.00,,,0.00,VWS V14.01,2013-02-23 12:25:00,
2013-02-23 07:30:00,45.4,42.6,29.96,East,82,0.0,0.0,90,0.00,,,0.00,VWS V14.01,2013-02-23 12:30:00,
2013-02-23 07:35:00,45.4,42.6,29.96,East,82,0.0,0.0,90,0.00,,,0.00,VWS V14.01,2013-02-23 12:35:00,
2013-02-23 07:40:00,45.4,42.6,29.96,East,82,0.0,0.0,90,0.00,,,0.00,VWS V14.01,2013-02-23 12:40:00,
2013-02-23 07:45:00,45.5,42.7,29.96,NNE,28,3.0,3.0,90,0.00,,,0.00,VWS V14.01,2013-02-23 12:45:00,
2013-02-23 07:50:00,45.5,42.7,29.96,NNW,343,1.0,1.0,90,0.00,,,0.00,VWS V14.01,2013-02-23 12:50:00,
2013-02-23 07:55:00,45.5,42.7,29.97,NNW,343,0.0,1.0,90,0.00,,,0.00,VWS V14.01,2013-02-23 12:55:00,
2013-02-23 08:00:00,45.5,42.7,29.96,NNW,343,1.0,2.0,90,0.00,,,0.00,VWS V14.01,2013-02-23 13:00:00,
2013-02-23 08:05:00,45.5,42.7,29.96,NNW,343,0.0,1.0,90,0.00,,,0.00,VWS V14.01,2013-02-23 13:05:00,
2013-02-23 08:10:00,45.6,42.8,29.96,NNW,343,0.0,0.0,90,0.00,,,0.00,VWS V14.01,2013-02-23 13:10:00,
2013-02-23 08:15:00,45.6,42.8,29.97,NNW,345,0.0,0.0,90,0.00,,,0.00,VWS V14.01,2013-02-23 13:15:00,
2013-02-23 08:20:00,45.6,42.8,29.96,NNW,345,1.0,2.0,90,0.00,,,0.00,VWS V14.01,2013-02-23 13:20:00,
2013-02-23 08:25:00,45.6,42.8,29.97,North,353,0.0,1.0,90,0.00,,,0.00,VWS V14.01,2013-02-23 13:25:00,
2013-02-23 08:30:00,45.6,42.8,29.96,North,353,0.0,0.0,90,0.00,,,0.00,VWS V14.01,2013-02-23 13:30:00,
2013-02-23 08:35:00,45.7,42.9,29.96,North,353,0.0,0.0,90,0.00,,,0.00,VWS V14.01,2013-02-23 13:35:00,
2013-02-23 08:40:00,45.7,42.9,29.97,North,353,0.0,0.0,90,0.00,,,0.00,VWS V14.01,2013-02-23 13:40:00,
2013-02-23 08:45:00,45.8,43.0,29.97,North,353,0.0,0.0,90,0.00,,,0.00,VWS V14.01,2013-02-23 13:45:00,
2013-02-23 08:50:00,45.8,43.0,29.97,North,353,0.0,0.0,90,0.00,,,0.00,VWS V14.01,2013-02-23 13:50:00,
2013-02-23 08:55:00,45.9,43.1,29.97,North,353,0.0,0.0,90,0.00,,,0.00,VWS V14.01,2013-02-23 13:55:00,
2013-02-23 09:00:00,45.9,43.1,29.97,North,353,0.0,0.0,90,0.00,,,0.00,VWS V14.01,2013-02-23 14:00:00,
2013-02-23 09:05:00,46.0,43.2,29.97,North,353,0.0,0.0,90,0.00,,,0.00,VWS V14.01,2013-02-23 14:05:00,
2013-02-23 09:10:00,46.1,43.3,29.97,North,353,0.0,0.0,90,0.00,,,0.00,VWS V14.01,2013-02-23 14:10:00,
2013-02-23 09:15:00,46.2,43.4,29.96,North,353,0.0,0.0,90,0.00,,,0.00,VWS V14.01,2013-02-23 14:15:00,
2013-02-23 09:20:00,46.3,43.5,29.97,North,353,0.0,0.0,90,0.00,,,0.00,VWS V14.01,2013-02-23 14:20:00,
2013-02-23 09:25:00,46.3,43.5,29.96,North,353,0.0,0.0,90,0.00,,,0.00,VWS V14.01,2013-02-23 14:25:00,
2013-02-23 09:30:00,46.4,43.6,29.96,North,353,0.0,0.0,90,0.00,,,0.00,VWS V14.01,2013-02-23 14:30:00,
2013-02-23 09:35:00,46.5,43.7,29.96,North,354,0.0,0.0,90,0.00,,,0.00,VWS V14.01,2013-02-23 14:35:00,
2013-02-23 09:40:00,46.7,43.9,29.96,North,354,0.0,0.0,90,0.00,,,0.00,VWS V14.01,2013-02-23 14:40:00,
2013-02-23 09:45:00,46.8,44.0,29.96,North,354,0.0,0.0,90,0.00,,,0.00,VWS V14.01,2013-02-23 14:45:00,
2013-02-23 09:50:00,47.0,44.2,29.96,North,354,0.0,0.0,90,0.00,,,0.00,VWS V14.01,2013-02-23 14:50:00,
2013-02-23 09:55:00,47.0,44.2,29.96,North,354,0.0,0.0,90,0.00,,,0.00,VWS V14.01,2013-02-23 14:55:00,
2013-02-23 10:00:00,47.2,44.4,29.95,North,354,0.0,0.0,90,0.00,,,0.00,VWS V14.01,2013-02-23 15:00:00,
2013-02-23 10:05:00,47.4,44.6,29.95,North,354,1.0,1.0,90,0.00,,,0.00,VWS V14.01,2013-02-23 15:05:00,
2013-02-23 10:10:00,47.4,44.6,29.96,North,355,0.0,0.0,90,0.00,,,0.00,VWS V14.01,2013-02-23 15:10:00,
2013-02-23 10:15:00,47.5,44.7,29.95,NNW,346,1.0,2.0,90,0.00,,,0.00,VWS V14.01,2013-02-23 15:15:00,
2013-02-23 10:20:00,47.6,44.8,29.95,NNW,336,0.0,1.0,90,0.00,,,0.00,VWS V14.01,2013-02-23 15:20:00,
2013-02-23 10:25:00,47.8,45.0,29.94,North,11,1.0,1.0,90,0.00,,,0.00,VWS V14.01,2013-02-23 15:25:00,
2013-02-23 10:30:00,47.9,45.1,29.94,North,0,0.0,2.0,90,0.00,,,0.00,VWS V14.01,2013-02-23 15:30:00,
2013-02-23 10:35:00,48.1,45.3,29.94,North,0,0.0,2.0,90,0.00,,,0.00,VWS V14.01,2013-02-23 15:35:00,
2013-02-23 10:40:00,48.2,45.1,29.94,North,0,0.0,0.0,89,0.00,,,0.00,VWS V14.01,2013-02-23 15:40:00,
2013-02-23 10:45:00,48.3,45.2,29.94,NNE,17,0.0,2.0,89,0.00,,,0.00,VWS V14.01,2013-02-23 15:45:00,
2013-02-23 10:50:00,48.3,45.2,29.94,North,359,0.0,1.0,89,0.00,,,0.00,VWS V14.01,2013-02-23 15:50:00,
2013-02-23 10:55:00,48.3,44.9,29.94,NW,317,3.0,3.0,88,0.00,,,0.00,VWS V14.01,2013-02-23 15:55:00,
2013-02-23 11:00:00,48.5,45.1,29.94,NW,318,1.0,2.0,88,0.00,,,0.00,VWS V14.01,2013-02-23 16:00:00,
2013-02-23 11:05:00,48.6,45.5,29.94,NNW,338,0.0,1.0,89,0.00,,,0.00,VWS V14.01,2013-02-23 16:05:00,
2013-02-23 11:10:00,48.7,45.3,29.94,North,2,0.0,1.0,88,0.00,,,0.00,VWS V14.01,2013-02-23 16:10:00,
2013-02-23 11:15:00,49.0,45.6,29.95,ENE,63,0.0,0.0,88,0.00,,,0.00,VWS V14.01,2013-02-23 16:15:00,
2013-02-23 11:20:00,49.0,45.6,29.94,NNW,330,1.0,2.0,88,0.00,,,0.00,VWS V14.01,2013-02-23 16:20:00,
2013-02-23 11:25:00,49.1,45.4,29.94,NE,56,0.0,1.0,87,0.00,,,0.00,VWS V14.01,2013-02-23 16:25:00,
2013-02-23 11:30:00,49.2,45.5,29.94,NW,307,1.0,3.0,87,0.00,,,0.00,VWS V14.01,2013-02-23 16:30:00,
2013-02-23 11:35:00,49.4,45.7,29.94,NW,307,2.0,3.0,87,0.00,,,0.00,VWS V14.01,2013-02-23 16:35:00,
2013-02-23 11:40:00,49.4,45.4,29.94,NW,307,1.0,3.0,86,0.00,,,0.00,VWS V14.01,2013-02-23 16:40:00,
2013-02-23 11:45:00,49.5,45.5,29.94,WNW,301,1.0,3.0,86,0.00,,,0.00,VWS V14.01,2013-02-23 16:45:00,
2013-02-23 11:50:00,49.5,45.5,29.94,WNW,301,0.0,1.0,86,0.00,,,0.00,VWS V14.01,2013-02-23 16:50:00,
2013-02-23 11:55:00,49.6,45.6,29.94,WNW,295,1.0,3.0,86,0.00,,,0.00,VWS V14.01,2013-02-23 16:55:00,
2013-02-23 12:00:00,49.7,45.7,29.93,WNW,295,0.0,0.0,86,0.00,,,0.00,VWS V14.01,2013-02-23 17:00:00,
2013-02-23 12:05:00,49.8,45.8,29.94,NW,308,0.0,3.0,86,0.00,,,0.00,VWS V14.01,2013-02-23 17:05:00,
2013-02-23 12:10:00,49.9,45.9,29.94,WNW,295,0.0,0.0,86,0.00,,,0.00,VWS V14.01,2013-02-23 17:10:00,
2013-02-23 12:15:00,49.9,45.6,29.94,WNW,294,3.0,3.0,85,0.00,,,0.00,VWS V14.01,2013-02-23 17:15:00,
2013-02-23 12:20:00,50.0,46.0,29.93,WNW,291,1.0,2.0,86,0.00,,,0.00,VWS V14.01,2013-02-23 17:20:00,
2013-02-23 12:25:00,50.1,45.8,29.93,WNW,294,2.0,4.0,85,0.00,,,0.00,VWS V14.01,2013-02-23 17:25:00,
2013-02-23 12:30:00,50.2,45.9,29.93,WNW,292,1.0,1.0,85,0.00,,,0.00,VWS V14.01,2013-02-23 17:30:00,
2013-02-23 12:35:00,50.4,46.1,29.92,WNW,292,0.0,0.0,85,0.00,,,0.00,VWS V14.01,2013-02-23 17:35:00,
2013-02-23 12:40:00,50.4,45.8,29.92,WNW,292,0.0,0.0,84,0.00,,,0.00,VWS V14.01,2013-02-23 17:40:00,
2013-02-23 12:45:00,50.4,45.8,29.92,WNW,292,0.0,0.0,84,0.00,,,0.00,VWS V14.01,2013-02-23 17:45:00,
2013-02-23 12:50:00,50.5,45.8,29.92,WNW,292,0.0,0.0,84,0.00,,,0.00,VWS V14.01,2013-02-23 17:50:00,
2013-02-23 12:55:00,50.5,45.8,29.92,North,0,0.0,1.0,84,0.00,,,0.00,VWS V14.01,2013-02-23 17:55:00,
2013-02-23 13:00:00,50.6,46.0,29.92,NE,41,0.0,1.0,84,0.00,,,0.00,VWS V14.01,2013-02-23 18:00:00,
2013-02-23 13:05:00,50.6,45.6,29.91,SSE,162,1.0,3.0,83,0.00,,,0.00,VWS V14.01,2013-02-23 18:05:00,
2013-02-23 13:10:00,50.7,45.7,29.91,SE,127,2.0,3.0,83,0.00,,,0.00,VWS V14.01,2013-02-23 18:10:00,
2013-02-23 13:15:00,50.8,45.8,29.91,South,182,1.0,2.0,83,0.00,,,0.00,VWS V14.01,2013-02-23 18:15:00,
2013-02-23 13:20:00,50.8,45.8,29.91,South,182,0.0,0.0,83,0.00,,,0.00,VWS V14.01,2013-02-23 18:20:00,
2013-02-23 13:25:00,51.0,46.0,29.91,SSE,157,1.0,2.0,83,0.00,,,0.00,VWS V14.01,2013-02-23 18:25:00,
2013-02-23 13:30:00,51.1,46.1,29.91,South,173,0.0,2.0,83,0.00,,,0.00,VWS V14.01,2013-02-23 18:30:00,
2013-02-23 13:35:00,51.2,46.2,29.91,West,280,0.0,2.0,83,0.00,,,0.00,VWS V14.01,2013-02-23 18:35:00,
2013-02-23 13:40:00,51.5,46.2,29.91,West,279,2.0,2.0,82,0.00,,,0.00,VWS V14.01,2013-02-23 18:40:00,
2013-02-23 13:45:00,51.6,46.3,29.91,WSW,258,1.0,4.0,82,0.00,,,0.00,VWS V14.01,2013-02-23 18:45:00,
2013-02-23 13:50:00,51.8,46.5,29.90,WSW,247,3.0,4.0,82,0.00,,,0.00,VWS V14.01,2013-02-23 18:50:00,
2013-02-23 13:55:00,51.8,46.2,29.90,WSW,249,0.0,2.0,81,0.00,,,0.00,VWS V14.01,2013-02-23 18:55:00,
2013-02-23 14:00:00,51.7,45.7,29.90,WSW,249,0.0,1.0,80,0.00,,,0.00,VWS V14.01,2013-02-23 19:00:00,
2013-02-23 14:05:00,51.7,46.4,29.90,SW,223,1.0,2.0,82,0.00,,,0.00,VWS V14.01,2013-02-23 19:05:00,
2013-02-23 14:10:00,51.8,46.2,29.90,West,262,2.0,3.0,81,0.00,,,0.00,VWS V14.01,2013-02-23 19:10:00,
2013-02-23 14:15:00,52.0,46.4,29.90,West,264,5.0,5.0,81,0.00,,,0.00,VWS V14.01,2013-02-23 19:15:00,
2013-02-23 14:20:00,52.2,46.2,29.90,West,274,3.0,5.0,80,0.00,,,0.00,VWS V14.01,2013-02-23 19:20:00,
2013-02-23 14:25:00,52.3,46.0,29.90,West,265,0.0,0.0,79,0.00,,,0.00,VWS V14.01,2013-02-23 19:25:00,
2013-02-23 14:30:00,52.5,46.5,29.90,West,271,2.0,4.0,80,0.00,,,0.00,VWS V14.01,2013-02-23 19:30:00,
2013-02-23 14:35:00,52.5,46.2,29.90,WNW,283,2.0,4.0,79,0.00,,,0.00,VWS V14.01,2013-02-23 19:35:00,
2013-02-23 14:40:00,52.6,46.3,29.90,West,281,1.0,3.0,79,0.00,,,0.00,VWS V14.01,2013-02-23 19:40:00,
2013-02-23 14:45:00,52.7,46.4,29.90,West,262,3.0,3.0,79,0.00,,,0.00,VWS V14.01,2013-02-23 19:45:00,
2013-02-23 14:50:00,52.8,46.5,29.90,West,274,2.0,4.0,79,0.00,,,0.00,VWS V14.01,2013-02-23 19:50:00,
2013-02-23 14:55:00,52.8,46.1,29.90,SW,233,4.0,5.0,78,0.00,,,0.00,VWS V14.01,2013-02-23 19:55:00,
2013-02-23 15:00:00,53.1,46.1,29.89,WSW,245,3.0,5.0,77,0.00,,,0.00,VWS V14.01,2013-02-23 20:00:00,
2013-02-23 15:05:00,53.2,45.8,29.89,West,263,2.0,2.0,76,0.00,,,0.00,VWS V14.01,2013-02-23 20:05:00,
2013-02-23 15:10:00,53.2,45.5,29.89,West,272,0.0,3.0,75,0.00,,,0.00,VWS V14.01,2013-02-23 20:10:00,
2013-02-23 15:15:00,53.1,45.8,29.89,South,182,2.0,2.0,76,0.00,,,0.00,VWS V14.01,2013-02-23 20:15:00,
2013-02-23 15:20:00,53.1,45.8,29.89,SSW,212,3.0,5.0,76,0.00,,,0.00,VWS V14.01,2013-02-23 20:20:00,
2013-02-23 15:25:00,53.3,46.3,29.89,SSW,195,3.0,4.0,77,0.00,,,0.00,VWS V14.01,2013-02-23 20:25:00,
2013-02-23 15:30:00,53.5,46.1,29.89,WSW,256,5.0,5.0,76,0.00,,,0.00,VWS V14.01,2013-02-23 20:30:00,
2013-02-23 15:35:00,53.5,45.8,29.89,WSW,248,2.0,4.0,75,0.00,,,0.00,VWS V14.01,2013-02-23 20:35:00,
2013-02-23 15:40:00,53.4,45.7,29.90,WSW,237,2.0,3.0,75,0.00,,,0.00,VWS V14.01,2013-02-23 20:40:00,
2013-02-23 15:45:00,53.3,45.6,29.90,South,180,2.0,4.0,75,0.00,,,0.00,VWS V14.01,2013-02-23 20:45:00,
2013-02-23 15:50:00,53.4,46.0,29.90,SW,233,1.0,3.0,76,0.00,,,0.00,VWS V14.01,2013-02-23 20:50:00,
2013-02-23 15:55:00,53.4,45.7,29.90,South,191,3.0,4.0,75,0.00,,,0.00,VWS V14.01,2013-02-23 20:55:00,
2013-02-23 16:00:00,53.5,46.1,29.89,SW,223,2.0,3.0,76,0.00,,,0.00,VWS V14.01,2013-02-23 21:00:00,
2013-02-23 16:05:00,53.5,45.8,29.89,West,275,0.0,4.0,75,0.00,,,0.00,VWS V14.01,2013-02-23 21:05:00,
2013-02-23 16:10:00,53.5,45.8,29.89,SSE,159,0.0,2.0,75,0.00,,,0.00,VWS V14.01,2013-02-23 21:10:00,
2013-02-23 16:15:00,53.4,45.7,29.89,SW,230,2.0,2.0,75,0.00,,,0.00,VWS V14.01,2013-02-23 21:15:00,
2013-02-23 16:20:00,53.3,45.6,29.89,SSW,201,0.0,2.0,75,0.00,,,0.00,VWS V14.01,2013-02-23 21:20:00,
2013-02-23 16:25:00,53.2,45.5,29.89,SW,227,2.0,3.0,75,0.00,,,0.00,VWS V14.01,2013-02-23 21:25:00,
2013-02-23 16:30:00,53.0,45.7,29.89,SW,233,3.0,3.0,76,0.00,,,0.00,VWS V14.01,2013-02-23 21:30:00,
2013-02-23 16:35:00,52.8,45.5,29.89,SW,230,1.0,3.0,76,0.00,,,0.00,VWS V14.01,2013-02-23 21:35:00,
2013-02-23 16:40:00,52.7,45.4,29.88,SW,220,0.0,0.0,76,0.00,,,0.00,VWS V14.01,2013-02-23 21:40:00,
2013-02-23 16:45:00,52.6,45.6,29.88,WSW,245,0.0,1.0,77,0.00,,,0.00,VWS V14.01,2013-02-23 21:45:00,
2013-02-23 16:50:00,52.5,45.5,29.88,WSW,245,0.0,0.0,77,0.00,,,0.00,VWS V14.01,2013-02-23 21:50:00,
2013-02-23 16:55:00,52.4,45.8,29.88,WSW,245,0.0,1.0,78,0.00,,,0.00,VWS V14.01,2013-02-23 21:55:00,
2013-02-23 17:00:00,52.3,45.7,29.87,WSW,245,0.0,0.0,78,0.00,,,0.00,VWS V14.01,2013-02-23 22:00:00,
2013-02-23 17:05:00,52.2,45.6,29.88,WSW,245,2.0,2.0,78,0.00,,,0.00,VWS V14.01,2013-02-23 22:05:00,
2013-02-23 17:10:00,52.1,45.5,29.88,WSW,249,1.0,2.0,78,0.00,,,0.00,VWS V14.01,2013-02-23 22:10:00,
2013-02-23 17:15:00,51.9,45.3,29.87,WSW,250,1.0,2.0,78,0.00,,,0.00,VWS V14.01,2013-02-23 22:15:00,
2013-02-23 17:20:00,51.8,45.2,29.87,WSW,250,0.0,1.0,78,0.00,,,0.00,VWS V14.01,2013-02-23 22:20:00,
2013-02-23 17:25:00,51.7,45.1,29.87,WSW,249,1.0,1.0,78,0.00,,,0.00,VWS V14.01,2013-02-23 22:25:00,
2013-02-23 17:30:00,51.6,45.0,29.87,WSW,249,0.0,0.0,78,0.00,,,0.00,VWS V14.01,2013-02-23 22:30:00,
2013-02-23 17:35:00,51.5,44.9,29.87,WSW,249,0.0,0.0,78,0.00,,,0.00,VWS V14.01,2013-02-23 22:35:00,
2013-02-23 17:40:00,51.4,45.1,29.86,WSW,250,0.0,0.0,79,0.00,,,0.00,VWS V14.01,2013-02-23 22:40:00,
2013-02-23 17:45:00,51.3,45.0,29.86,WSW,250,0.0,0.0,79,0.00,,,0.00,VWS V14.01,2013-02-23 22:45:00,
2013-02-23 17:50:00,51.1,44.8,29.86,WSW,250,0.0,0.0,79,0.00,,,0.00,VWS V14.01,2013-02-23 22:50:00,
2013-02-23 17:55:00,51.0,44.7,29.86,WSW,250,0.0,0.0,79,0.00,,,0.00,VWS V14.01,2013-02-23 22:55:00,
2013-02-23 18:00:00,50.8,44.5,29.86,WSW,237,0.0,0.0,79,0.00,,,0.00,VWS V14.01,2013-02-23 23:00:00,
2013-02-23 18:05:00,50.4,44.5,29.86,WSW,237,0.0,0.0,80,0.00,,,0.00,VWS V14.01,2013-02-23 23:05:00,
2013-02-23 18:10:00,50.2,44.6,29.86,West,263,0.0,2.0,81,0.00,,,0.00,VWS V14.01,2013-02-23 23:10:00,
2013-02-23 18:15:00,50.0,44.4,29.85,West,263,1.0,2.0,81,0.00,,,0.00,VWS V14.01,2013-02-23 23:15:00,
2013-02-23 18:20:00,49.8,44.2,29.85,West,263,2.0,3.0,81,0.00,,,0.00,VWS V14.01,2013-02-23 23:20:00,
2013-02-23 18:25:00,49.6,44.3,29.86,West,263,0.0,2.0,82,0.00,,,0.00,VWS V14.01,2013-02-23 23:25:00,
2013-02-23 18:30:00,49.5,44.2,29.86,West,263,0.0,0.0,82,0.00,,,0.00,VWS V14.01,2013-02-23 23:30:00,
2013-02-23 18:35:00,49.3,44.0,29.86,West,263,0.0,0.0,82,0.00,,,0.00,VWS V14.01,2013-02-23 23:35:00,
2013-02-23 18:40:00,49.2,44.3,29.86,West,263,0.0,0.0,83,0.00,,,0.00,VWS V14.01,2013-02-23 23:40:00,
2013-02-23 18:45:00,49.0,44.1,29.86,West,263,0.0,0.0,83,0.00,,,0.00,VWS V14.01,2013-02-23 23:45:00,
2013-02-23 18:50:00,48.7,43.8,29.86,NW,305,1.0,3.0,83,0.00,,,0.00,VWS V14.01,2013-02-23 23:50:00,
2013-02-23 18:56:00,48.6,43.7,29.85,NW,307,0.0,0.0,83,0.00,,,0.00,VWS V14.01,2013-02-23 23:56:00,
2013-02-23 19:01:00,48.5,43.6,29.85,NW,307,0.0,0.0,83,0.00,,,0.00,VWS V14.01,2013-02-24 00:01:00,
2013-02-23 19:06:00,48.3,43.7,29.85,NW,307,0.0,0.0,84,0.00,,,0.00,VWS V14.01,2013-02-24 00:06:00,
2013-02-23 19:11:00,48.2,43.6,29.85,NW,307,0.0,0.0,84,0.00,,,0.00,VWS V14.01,2013-02-24 00:11:00,
2013-02-23 19:16:00,48.0,43.4,29.86,NW,307,0.0,0.0,84,0.00,,,0.00,VWS V14.01,2013-02-24 00:16:00,
2013-02-23 19:21:00,47.8,43.2,29.86,NW,307,0.0,0.0,84,0.00,,,0.00,VWS V14.01,2013-02-24 00:21:00,
2013-02-23 19:26:00,47.6,43.0,29.87,NW,307,1.0,2.0,84,0.00,,,0.00,VWS V14.01,2013-02-24 00:26:00,
2013-02-23 19:31:00,47.4,42.8,29.87,NW,307,0.0,0.0,84,0.00,,,0.00,VWS V14.01,2013-02-24 00:31:00,
2013-02-23 19:36:00,47.2,42.6,29.88,NW,307,0.0,0.0,84,0.00,,,0.00,VWS V14.01,2013-02-24 00:36:00,
2013-02-23 19:41:00,46.9,42.3,29.88,NW,307,0.0,0.0,84,0.00,,,0.00,VWS V14.01,2013-02-24 00:41:00,
2013-02-23 19:46:00,46.7,42.1,29.88,NW,307,0.0,0.0,84,0.00,,,0.00,VWS V14.01,2013-02-24 00:46:00,
2013-02-23 19:51:00,46.5,41.9,29.87,NW,307,0.0,0.0,84,0.00,,,0.00,VWS V14.01,2013-02-24 00:51:00,
2013-02-23 19:56:00,46.3,41.7,29.87,NW,307,0.0,0.0,84,0.00,,,0.00,VWS V14.01,2013-02-24 00:56:00,
2013-02-23 20:01:00,46.1,41.5,29.87,NW,307,0.0,0.0,84,0.00,,,0.00,VWS V14.01,2013-02-24 01:01:00,
2013-02-23 20:06:00,45.8,41.5,29.87,NW,307,0.0,0.0,85,0.00,,,0.00,VWS V14.01,2013-02-24 01:06:00,
2013-02-23 20:11:00,45.7,41.5,29.87,NW,307,0.0,0.0,85,0.00,,,0.00,VWS V14.01,2013-02-24 01:11:00,
2013-02-23 20:16:00,45.6,41.7,29.87,NW,307,0.0,0.0,86,0.00,,,0.00,VWS V14.01,2013-02-24 01:16:00,
2013-02-23 20:21:00,45.5,41.6,29.87,NW,307,0.0,0.0,86,0.00,,,0.00,VWS V14.01,2013-02-24 01:21:00,
2013-02-23 20:26:00,45.3,41.4,29.87,NW,307,0.0,0.0,86,0.00,,,0.00,VWS V14.01,2013-02-24 01:26:00,
2013-02-23 20:31:00,45.1,41.2,29.87,NW,307,0.0,0.0,86,0.00,,,0.00,VWS V14.01,2013-02-24 01:31:00,
2013-02-23 20:36:00,44.9,41.0,29.88,NW,307,1.0,2.0,86,0.00,,,0.00,VWS V14.01,2013-02-24 01:36:00,
2013-02-23 20:41:00,44.8,40.9,29.88,NW,307,0.0,0.0,86,0.00,,,0.00,VWS V14.01,2013-02-24 01:41:00,
2013-02-23 20:46:00,44.6,40.7,29.88,NW,307,1.0,2.0,86,0.00,,,0.00,VWS V14.01,2013-02-24 01:46:00,
2013-02-23 20:51:00,44.3,40.4,29.89,NW,307,1.0,2.0,86,0.00,,,0.00,VWS V14.01,2013-02-24 01:51:00,
2013-02-23 20:56:00,44.2,40.3,29.88,NW,307,0.0,0.0,86,0.00,,,0.00,VWS V14.01,2013-02-24 01:56:00,
2013-02-23 21:01:00,44.1,40.2,29.89,NW,307,0.0,0.0,86,0.00,,,0.00,VWS V14.01,2013-02-24 02:01:00,
2013-02-23 21:06:00,44.1,40.2,29.89,NW,307,0.0,0.0,86,0.00,,,0.00,VWS V14.01,2013-02-24 02:06:00,
2013-02-23 21:11:00,44.1,40.5,29.89,NW,307,0.0,0.0,87,0.00,,,0.00,VWS V14.01,2013-02-24 02:11:00,
2013-02-23 21:16:00,44.1,40.5,29.90,NW,307,0.0,0.0,87,0.00,,,0.00,VWS V14.01,2013-02-24 02:16:00,
2013-02-23 21:21:00,44.2,40.6,29.90,NW,307,0.0,0.0,87,0.00,,,0.00,VWS V14.01,2013-02-24 02:21:00,
2013-02-23 21:26:00,44.2,40.6,29.90,NW,307,0.0,0.0,87,0.00,,,0.00,VWS V14.01,2013-02-24 02:26:00,
2013-02-23 21:31:00,44.2,40.6,29.90,NW,307,0.0,1.0,87,0.00,,,0.00,VWS V14.01,2013-02-24 02:31:00,
2013-02-23 21:36:00,44.2,40.6,29.90,NW,307,0.0,0.0,87,0.00,,,0.00,VWS V14.01,2013-02-24 02:36:00,
2013-02-23 21:41:00,44.2,40.6,29.90,NW,307,0.0,0.0,87,0.00,,,0.00,VWS V14.01,2013-02-24 02:41:00,
2013-02-23 21:46:00,44.1,40.5,29.90,NW,307,0.0,0.0,87,0.00,,,0.00,VWS V14.01,2013-02-24 02:46:00,
2013-02-23 21:51:00,44.1,40.5,29.90,NW,307,0.0,0.0,87,0.00,,,0.00,VWS V14.01,2013-02-24 02:51:00,
2013-02-23 21:56:00,44.0,40.7,29.91,NW,307,0.0,0.0,88,0.00,,,0.00,VWS V14.01,2013-02-24 02:56:00,
2013-02-23 22:01:00,44.0,40.7,29.91,NW,307,0.0,0.0,88,0.00,,,0.00,VWS V14.01,2013-02-24 03:01:00,
2013-02-23 22:06:00,44.0,40.7,29.91,SW,222,0.0,3.0,88,0.00,,,0.00,VWS V14.01,2013-02-24 03:06:00,
2013-02-23 22:11:00,44.0,40.4,29.91,SW,217,0.0,0.0,87,0.00,,,0.00,VWS V14.01,2013-02-24 03:11:00,
2013-02-23 22:16:00,44.0,40.7,29.91,SSW,197,0.0,3.0,88,0.00,,,0.00,VWS V14.01,2013-02-24 03:16:00,
2013-02-23 22:21:00,43.9,40.3,29.91,SW,222,0.0,2.0,87,0.00,,,0.00,VWS V14.01,2013-02-24 03:21:00,
2013-02-23 22:26:00,44.0,40.7,29.92,SSW,204,2.0,3.0,88,0.00,,,0.00,VWS V14.01,2013-02-24 03:26:00,
2013-02-23 22:31:00,44.2,40.9,29.92,WSW,247,1.0,5.0,88,0.00,,,0.00,VWS V14.01,2013-02-24 03:31:00,
2013-02-23 22:36:00,44.7,41.7,29.92,SW,217,4.0,4.0,89,0.00,,,0.00,VWS V14.01,2013-02-24 03:36:00,
2013-02-23 22:41:00,45.1,42.1,29.92,SW,222,5.0,7.0,89,0.00,,,0.00,VWS V14.01,2013-02-24 03:41:00,
2013-02-23 22:46:00,45.6,42.5,29.92,WSW,239,2.0,5.0,89,0.00,,,0.00,VWS V14.01,2013-02-24 03:46:00,
2013-02-23 22:51:00,45.9,42.8,29.92,WSW,250,1.0,5.0,89,0.00,,,0.00,VWS V14.01,2013-02-24 03:51:00,
2013-02-23 22:56:00,46.0,43.0,29.92,SW,217,2.0,5.0,89,0.00,,,0.00,VWS V14.01,2013-02-24 03:56:00,
2013-02-23 23:01:00,45.9,42.8,29.92,SW,225,2.0,8.0,89,0.00,,,0.00,VWS V14.01,2013-02-24 04:01:00,
2013-02-23 23:06:00,45.9,42.5,29.92,West,261,3.0,6.0,88,0.00,,,0.00,VWS V14.01,2013-02-24 04:06:00,
2013-02-23 23:11:00,45.7,42.4,29.93,West,261,6.0,9.0,88,0.00,,,0.00,VWS V14.01,2013-02-24 04:11:00,
2013-02-23 23:16:00,45.6,42.3,29.93,West,272,6.0,6.0,88,0.00,,,0.00,VWS V14.01,2013-02-24 04:16:00,
2013-02-23 23:21:00,45.5,41.9,29.93,WSW,254,6.0,9.0,87,0.00,,,0.00,VWS V14.01,2013-02-24 04:21:00,
2013-02-23 23:26:00,45.6,42.0,29.93,West,266,4.0,6.0,87,0.00,,,0.00,VWS V14.01,2013-02-24 04:26:00,
2013-02-23 23:31:00,45.5,41.6,29.92,WSW,253,3.0,4.0,86,0.00,,,0.00,VWS V14.01,2013-02-24 04:31:00,
2013-02-23 23:36:00,45.3,41.1,29.92,WSW,251,2.0,5.0,85,0.00,,,0.00,VWS V14.01,2013-02-24 04:36:00,
2013-02-23 23:41:00,45.1,40.6,29.92,SW,233,3.0,5.0,84,0.00,,,0.00,VWS V14.01,2013-02-24 04:41:00,
2013-02-23 23:46:00,44.8,40.3,29.93,WSW,239,3.0,4.0,84,0.00,,,0.00,VWS V14.01,2013-02-24 04:46:00,
2013-02-23 23:51:00,44.6,39.8,29.92,SSW,208,3.0,7.0,83,0.00,,,0.00,VWS V14.01,2013-02-24 04:51:00,
2013-02-23 23:56:00,44.4,39.6,29.92,WSW,253,1.0,7.0,83,0.00,,,0.00,VWS V14.01,2013-02-24 04:56:00,